KPIR/PIR METAR and TAF weather

Enter ICAO airport designator
Station Type Date Time Source
KPIR METAR 2020/11/27 13:53 UTC NOAA

KPIR 271353Z AUTO 24008KT 10SM CLR M05/M10 A3015 RMK AO2 SLP229 T10501100


Station Type Date Time Source
KPIR Decoded METAR 2020/11/27 13:53 UTC NOAA

PIERRE REGIONAL AIRPORT, SD, United States (KPIR) 44-23N 100-17W 526M
Nov 27, 2020 - 08:53 AM EST / 2020.11.27 1353 UTC
Wind: from the WSW (240 degrees) at 9 MPH (8 KT):0
Visibility: 10 mile(s):0
Sky conditions: clear
Temperature: 23.0 F (-5.0 C)
Windchill: 14 F (-10 C):1
Dew Point: 14.0 F (-10.0 C)
Relative Humidity: 67%
Pressure (altimeter): 30.15 in. Hg (1020 hPa)
ob: KPIR 271353Z AUTO 24008KT 10SM CLR M05/M10 A3015 RMK AO2 SLP229 T10501100
cycle: 14

Station Type Date Time Source
KPIR TAF 2020/11/27 12:27 UTC NOAA

TAF KPIR 271125Z 2712/2812 25006KT P6SM FEW200
FM271900 27012KT P6SM FEW250

Example: see airport list